Time;durP1;ratioP1;P1;durP2;ratioP2;P2;SDS_P1;SDS_P2;PMS_P1;PMS_P2;Temp;Humidity;BMP_temperature;BMP_pressure;BME280_temperature;BME280_humidity;BME280_pressure;Samples;Min_cycle;Max_cycle;Signal;HPM_P1;HPM_P2
2022/05/12 00:00:00;;;;;;;5.60;2.30;;;;;;;20.50;43.03;98595.31;2616800;54;20565;-65
2022/05/12 00:02:35;;;;;;;2.42;2.00;;;;;;;20.48;43.05;98605.47;2618036;54;20055;-65
2022/05/12 00:05:06;;;;;;;3.95;1.95;;;;;;;20.48;42.85;98613.53;2618084;54;20085;-66
2022/05/12 00:07:40;;;;;;;6.65;1.95;;;;;;;20.47;43.17;98607.34;2616777;54;20019;-65
2022/05/12 00:10:13;;;;;;;6.07;2.10;;;;;;;20.42;43.36;98598.47;2617040;47;20084;-66
2022/05/12 00:12:43;;;;;;;4.45;1.92;;;;;;;20.40;43.23;98611.34;2617252;54;20026;-66
2022/05/12 00:15:17;;;;;;;4.68;1.77;;;;;;;20.39;43.33;98607.84;2617754;54;20045;-66
2022/05/12 00:17:47;;;;;;;4.95;2.00;;;;;;;20.34;43.64;98612.41;2617641;54;20034;-67
2022/05/12 00:20:20;;;;;;;6.47;2.10;;;;;;;20.28;43.69;98612.34;2617585;54;20030;-67
2022/05/12 00:22:52;;;;;;;3.00;2.10;;;;;;;20.26;43.89;98609.13;2617006;47;20057;-65
2022/05/12 00:25:25;;;;;;;6.07;2.08;;;;;;;20.24;43.92;98613.94;2616929;54;20026;-65
2022/05/12 00:27:55;;;;;;;3.25;2.00;;;;;;;20.24;43.81;98619.28;2617582;54;20026;-66
2022/05/12 00:30:24;;;;;;;2.35;1.77;;;;;;;20.18;44.07;98628.41;2617240;54;20038;-66
2022/05/12 00:32:54;;;;;;;2.67;1.85;;;;;;;20.15;44.33;98634.28;2616833;54;20562;-65
2022/05/12 00:35:24;;;;;;;2.63;1.85;;;;;;;20.14;44.20;98638.03;2617486;54;20026;-66
2022/05/12 00:37:56;;;;;;;4.18;1.55;;;;;;;20.14;44.56;98645.28;2617085;54;20030;-66
2022/05/12 00:40:26;;;;;;;3.38;1.73;;;;;;;20.08;44.93;98649.78;2617544;54;20042;-66
2022/05/12 00:43:01;;;;;;;2.30;1.92;;;;;;;20.07;44.57;98639.31;2616827;54;20031;-66
2022/05/12 00:45:35;;;;;;;5.35;1.88;;;;;;;20.04;44.95;98636.09;2617392;39;20438;-66
2022/05/12 00:48:06;;;;;;;4.60;2.25;;;;;;;19.99;45.18;98649.47;2617267;54;20103;-66
2022/05/12 00:50:39;;;;;;;8.15;2.08;;;;;;;19.96;45.44;98654.53;2617314;54;20034;-66
2022/05/12 00:53:15;;;;;;;6.57;2.40;;;;;;;19.95;45.27;98666.34;2617492;54;20031;-67
2022/05/12 00:55:47;;;;;;;2.40;1.90;;;;;;;19.89;45.79;98665.50;2616966;47;20058;-67
2022/05/12 00:58:21;;;;;;;5.20;2.15;;;;;;;19.85;45.53;98669.75;2617744;54;20042;-66
2022/05/12 01:00:51;;;;;;;5.72;1.77;;;;;;;19.80;46.18;98677.78;2616760;47;20068;-68
2022/05/12 01:03:24;;;;;;;2.13;1.60;;;;;;;19.73;45.89;98685.22;2616873;49;20535;-67
2022/05/12 01:05:55;;;;;;;3.28;1.73;;;;;;;19.67;46.00;98681.66;2617481;54;20545;-67
2022/05/12 01:08:28;;;;;;;3.53;1.60;;;;;;;19.65;46.12;98683.00;2617124;39;20407;-67
2022/05/12 01:11:02;;;;;;;2.45;1.80;;;;;;;19.65;46.46;98693.72;2616549;54;20022;-67
2022/05/12 01:13:33;;;;;;;2.25;1.60;;;;;;;19.59;46.29;98683.97;2618032;54;20547;-67
2022/05/12 01:16:05;;;;;;;2.85;1.90;;;;;;;19.59;46.62;98695.50;2617493;54;20566;-67
2022/05/12 01:18:40;;;;;;;2.40;1.60;;;;;;;19.53;46.63;98696.53;2617417;54;20030;-66
2022/05/12 01:21:12;;;;;;;3.55;1.52;;;;;;;19.52;46.52;98695.72;2617671;54;20035;-66
2022/05/12 01:23:44;;;;;;;3.45;1.80;;;;;;;19.50;46.87;98697.81;2618468;54;20042;-66
2022/05/12 01:26:15;;;;;;;6.35;2.08;;;;;;;19.49;47.15;98698.09;2617830;54;20034;-66
2022/05/12 01:28:46;;;;;;;3.33;2.15;;;;;;;19.48;47.31;98710.69;2618092;54;20035;-66
2022/05/12 01:31:18;;;;;;;2.92;1.63;;;;;;;19.45;47.40;98713.88;2617618;54;20061;-65
2022/05/12 01:33:48;;;;;;;4.40;1.85;;;;;;;19.45;47.07;98707.69;2618279;54;20129;-66
2022/05/12 01:36:18;;;;;;;6.07;2.15;;;;;;;19.38;47.68;98710.56;2618109;54;20073;-67
2022/05/12 01:38:51;;;;;;;3.47;2.00;;;;;;;19.38;47.47;98721.28;2619129;54;20065;-66
2022/05/12 01:41:21;;;;;;;3.67;1.63;;;;;;;19.35;47.58;98721.81;2618915;54;20034;-66
2022/05/12 01:43:50;;;;;;;2.97;1.65;;;;;;;19.30;47.73;98725.22;2618418;54;20031;-66
2022/05/12 01:46:20;;;;;;;5.65;1.88;;;;;;;19.30;47.99;98729.78;2618893;39;20434;-66
2022/05/12 01:48:50;;;;;;;2.28;1.60;;;;;;;19.23;48.02;98740.72;2618440;54;20046;-66
2022/05/12 01:51:20;;;;;;;4.38;1.80;;;;;;;19.13;48.16;98735.22;2620566;54;20041;-66
2022/05/12 01:53:52;;;;;;;3.17;1.70;;;;;;;19.14;48.29;98736.00;2623375;54;20034;-66
2022/05/12 01:56:22;;;;;;;3.40;1.80;;;;;;;19.12;48.33;98746.19;2623774;39;20461;-66
2022/05/12 01:58:52;;;;;;;2.25;1.58;;;;;;;19.09;48.95;98744.00;2620854;47;20042;-66
2022/05/12 02:01:21;;;;;;;3.97;1.75;;;;;;;19.08;48.87;98753.09;2621478;54;20126;-66
2022/05/12 02:03:51;;;;;;;3.08;1.55;;;;;;;19.01;49.11;98759.44;2622044;54;20503;-67
2022/05/12 02:06:21;;;;;;;2.22;1.35;;;;;;;18.99;49.56;98766.94;2622661;54;20019;-66
2022/05/12 02:08:53;;;;;;;2.42;1.48;;;;;;;18.93;49.49;98775.94;2621559;54;20034;-66
2022/05/12 02:11:22;;;;;;;3.85;1.80;;;;;;;18.91;49.33;98775.41;2621110;54;20102;-67
2022/05/12 02:13:52;;;;;;;6.38;1.60;;;;;;;18.88;49.97;98773.19;2622082;54;20030;-67
2022/05/12 02:16:24;;;;;;;4.93;1.33;;;;;;;18.89;50.01;98782.03;2621740;54;20027;-68
2022/05/12 02:18:54;;;;;;;1.80;1.40;;;;;;;18.83;50.09;98780.38;2621923;39;20419;-68
2022/05/12 02:21:24;;;;;;;2.53;1.33;;;;;;;18.78;50.10;98783.78;2619290;54;20549;-67
2022/05/12 02:23:56;;;;;;;5.50;2.05;;;;;;;18.72;50.39;98790.13;2618135;54;20030;-65
2022/05/12 02:26:26;;;;;;;2.17;1.40;;;;;;;18.68;50.28;98789.75;2617882;54;20033;-65
2022/05/12 02:28:56;;;;;;;2.42;1.50;;;;;;;18.68;50.47;98794.31;2619163;54;20033;-68
2022/05/12 02:31:26;;;;;;;6.25;1.70;;;;;;;18.65;50.90;98792.09;2618575;54;20037;-67
2022/05/12 02:33:55;;;;;;;2.83;1.60;;;;;;;18.62;50.75;98793.44;2618691;39;20530;-66
2022/05/12 02:36:25;;;;;;;2.03;1.58;;;;;;;18.64;51.24;98795.84;2618475;54;20043;-66
2022/05/12 02:38:57;;;;;;;3.42;1.60;;;;;;;18.62;51.07;98801.47;2617968;54;20030;-68
2022/05/12 02:41:27;;;;;;;2.67;1.30;;;;;;;18.56;51.06;98800.56;2618607;54;20043;-66
2022/05/12 02:43:57;;;;;;;4.07;1.65;;;;;;;18.53;51.40;98806.41;2618513;54;20041;-65
2022/05/12 02:46:26;;;;;;;2.72;1.55;;;;;;;18.52;51.35;98801.28;2618413;54;20033;-66
2022/05/12 02:48:56;;;;;;;3.75;2.10;;;;;;;18.50;51.72;98806.91;2618396;54;20131;-66
2022/05/12 02:51:25;;;;;;;3.05;1.90;;;;;;;18.48;52.08;98808.19;2618366;54;20106;-65
2022/05/12 02:53:58;;;;;;;1.98;1.70;;;;;;;18.45;52.05;98806.81;2618110;39;20473;-65
2022/05/12 02:56:27;;;;;;;3.92;1.73;;;;;;;18.40;52.17;98813.94;2618236;54;20065;-65
2022/05/12 02:58:57;;;;;;;2.17;1.70;;;;;;;18.37;52.36;98817.09;2618213;54;20030;-65
2022/05/12 03:01:27;;;;;;;5.95;1.98;;;;;;;18.33;52.30;98814.13;2617199;47;20022;-66
2022/05/12 03:03:56;;;;;;;3.53;1.80;;;;;;;18.30;52.46;98825.31;2617822;54;20025;-65
2022/05/12 03:06:26;;;;;;;6.55;1.80;;;;;;;18.21;52.94;98821.41;2618032;54;20030;-65
2022/05/12 03:08:59;;;;;;;4.55;1.95;;;;;;;18.10;53.33;98833.78;2617842;54;20554;-66
2022/05/12 03:11:29;;;;;;;7.38;2.40;;;;;;;18.04;53.79;98827.53;2617963;54;20555;-66
2022/05/12 03:13:59;;;;;;;4.05;1.92;;;;;;;18.03;53.81;98836.59;2617892;54;20031;-66
2022/05/12 03:16:29;;;;;;;4.18;2.03;;;;;;;17.99;54.08;98843.47;2617954;54;20050;-66
2022/05/12 03:18:59;;;;;;;6.05;2.00;;;;;;;17.99;54.14;98848.81;2617989;54;20045;-67
2022/05/12 03:21:29;;;;;;;4.65;2.03;;;;;;;18.01;54.38;98849.41;2617945;54;20098;-66
2022/05/12 03:24:01;;;;;;;3.20;2.10;;;;;;;18.07;54.11;98850.31;2618373;39;20459;-66
2022/05/12 03:26:30;;;;;;;5.03;1.98;;;;;;;18.02;54.61;98855.56;2618030;54;20039;-66
2022/05/12 03:29:00;;;;;;;5.00;2.03;;;;;;;18.05;54.09;98863.94;2617091;47;20041;-66
2022/05/12 03:31:30;;;;;;;2.95;1.85;;;;;;;18.07;54.47;98874.38;2617968;54;20026;-66
2022/05/12 03:34:00;;;;;;;2.67;1.85;;;;;;;18.02;54.45;98875.09;2618622;31;20483;-66
2022/05/12 03:36:33;;;;;;;5.25;2.10;;;;;;;18.02;54.87;98879.63;2617612;54;20022;-66
2022/05/12 03:39:07;;;;;;;;;;;;;;;18.05;54.47;98882.66;2617065;47;20038;-66
2022/05/12 03:41:37;;;;;;;3.22;2.00;;;;;;;18.05;54.52;98892.53;2617990;54;19953;-65
2022/05/12 03:46:49;;;;;;;2.47;1.83;;;;;;;18.00;54.92;98893.28;2618052;54;20042;-66
2022/05/12 03:49:19;;;;;;;4.15;2.42;;;;;;;18.04;55.27;98890.91;2617833;54;20022;-66
2022/05/12 03:51:48;;;;;;;3.33;2.25;;;;;;;18.09;54.88;98907.06;2618255;39;20437;-65
2022/05/12 03:54:20;;;;;;;3.90;2.10;;;;;;;18.15;55.27;98908.78;2617857;54;20035;-66
2022/05/12 03:56:50;;;;;;;2.55;1.77;;;;;;;18.10;55.16;98911.38;2617928;54;20098;-66
2022/05/12 03:59:20;;;;;;;3.42;2.15;;;;;;;18.09;55.41;98912.41;2617986;54;20039;-67
2022/05/12 04:01:49;;;;;;;3.70;2.38;;;;;;;18.12;54.93;98911.91;2624282;54;20046;-65
2022/05/12 04:04:19;;;;;;;6.07;2.35;;;;;;;18.16;55.07;98909.59;2617320;47;20030;-66
2022/05/12 04:06:50;;;;;;;2.90;1.80;;;;;;;18.15;55.20;98916.81;2617598;54;20045;-65
2022/05/12 04:09:22;;;;;;;3.35;1.90;;;;;;;18.15;54.92;98924.81;2617134;54;20057;-66
2022/05/12 04:11:52;;;;;;;4.07;2.03;;;;;;;18.13;55.35;98926.13;2617017;54;20551;-66
2022/05/12 04:14:21;;;;;;;4.65;2.17;;;;;;;18.19;55.18;98931.31;2618286;39;20423;-66
2022/05/12 04:16:51;;;;;;;4.82;2.20;;;;;;;18.24;55.21;98931.41;2617475;47;20169;-65
2022/05/12 04:19:21;;;;;;;4.45;3.30;;;;;;;18.24;55.50;98930.59;2617612;54;20037;-66
2022/05/12 04:21:52;;;;;;;2.05;1.85;;;;;;;18.24;55.12;98935.97;2617162;47;20022;-66
2022/05/12 04:24:25;;;;;;;3.92;1.98;;;;;;;18.23;55.07;98937.81;2617854;54;20539;-65
2022/05/12 04:26:54;;;;;;;4.68;2.10;;;;;;;18.22;55.60;98941.56;2617973;54;20048;-66
2022/05/12 04:29:25;;;;;;;5.60;1.95;;;;;;;18.19;55.66;98947.38;2617891;54;20046;-67
2022/05/12 04:31:54;;;;;;;4.60;2.22;;;;;;;18.18;55.62;98956.47;2617348;54;20034;-65
2022/05/12 04:37:06;;;;;;;3.55;2.67;;;;;;;18.17;56.00;98951.38;2617672;54;20031;-66
2022/05/12 04:39:38;;;;;;;6.07;2.45;;;;;;;18.26;55.66;98963.31;2617317;54;20133;-66
2022/05/12 04:42:08;;;;;;;4.20;3.10;;;;;;;18.27;55.56;98962.25;2618472;54;20182;-66
2022/05/12 04:44:38;;;;;;;6.40;2.28;;;;;;;18.18;55.84;98961.00;2617817;54;20045;-66
2022/05/12 04:47:08;;;;;;;5.28;1.90;;;;;;;18.16;56.13;98966.56;2617702;47;20037;-65
2022/05/12 04:49:38;;;;;;;5.22;2.33;;;;;;;18.23;56.13;98974.47;2617947;46;20110;-66
2022/05/12 04:52:08;;;;;;;3.33;2.08;;;;;;;18.26;55.79;98979.34;2618540;47;20031;-66
2022/05/12 04:54:41;;;;;;;2.92;2.60;;;;;;;18.23;56.19;98979.81;2618941;47;20530;-66
2022/05/12 04:57:10;;;;;;;6.60;2.05;;;;;;;18.25;56.25;98983.09;2618774;54;20042;-67
2022/05/12 04:59:47;;;;;;;2.72;1.92;;;;;;;18.26;56.24;98984.72;2618946;54;20042;-65
2022/05/12 05:02:17;;;;;;;4.88;2.45;;;;;;;18.20;56.08;98981.09;2619233;39;20428;-67
2022/05/12 05:04:47;;;;;;;5.35;2.05;;;;;;;18.20;56.48;98989.13;2618332;54;20026;-67
2022/05/12 05:07:17;;;;;;;3.53;2.00;;;;;;;18.20;56.29;98994.47;2618037;54;20018;-68
2022/05/12 05:09:49;;;;;;;2.97;2.20;;;;;;;18.26;56.45;98998.91;2618317;47;20030;-67
2022/05/12 05:12:19;;;;;;;7.25;2.70;;;;;;;18.27;56.24;98997.84;2618509;51;20038;-66
2022/05/12 05:14:49;;;;;;;5.47;2.50;;;;;;;18.27;55.84;99007.72;2618824;39;20419;-66
2022/05/12 05:17:18;;;;;;;5.50;2.13;;;;;;;18.29;56.36;99016.34;2618182;47;20027;-66
2022/05/12 05:19:48;;;;;;;2.97;1.90;;;;;;;18.37;56.05;99013.31;2618293;47;20030;-66
2022/05/12 05:22:17;;;;;;;2.53;2.20;;;;;;;18.44;55.88;99016.63;2618503;54;20038;-66
2022/05/12 05:24:50;;;;;;;3.83;1.92;;;;;;;18.43;55.57;99020.38;2618397;54;20022;-66
2022/05/12 05:27:19;;;;;;;3.20;1.90;;;;;;;18.52;55.94;99028.81;2619358;46;20145;-64
2022/05/12 05:29:51;;;;;;;4.20;2.00;;;;;;;18.60;55.64;99031.13;2618206;54;20026;-68
2022/05/12 05:32:20;;;;;;;2.35;1.92;;;;;;;18.71;55.37;99035.66;2618192;54;20039;-65
2022/05/12 05:34:50;;;;;;;6.07;2.42;;;;;;;18.74;55.30;99034.38;2618617;31;20511;-67
2022/05/12 05:37:20;;;;;;;4.82;2.20;;;;;;;18.78;54.86;99043.56;2618047;54;20065;-67
2022/05/12 05:39:52;;;;;;;2.75;1.90;;;;;;;18.77;55.16;99047.25;2618051;54;20031;-66
2022/05/12 05:42:22;;;;;;;4.78;2.20;;;;;;;18.85;54.60;99054.91;2618374;54;20035;-67
2022/05/12 05:44:52;;;;;;;4.10;2.38;;;;;;;18.76;54.94;99054.50;2618317;54;20049;-66
2022/05/12 05:47:22;;;;;;;4.07;1.98;;;;;;;18.77;54.65;99056.09;2618297;54;20550;-66
2022/05/12 05:49:51;;;;;;;3.03;1.70;;;;;;;18.75;54.77;99060.91;2618683;39;20427;-67
2022/05/12 05:55:06;;;;;;;4.30;2.20;;;;;;;18.46;54.84;99073.44;2618268;54;20042;-65
2022/05/12 05:57:37;;;;;;;3.22;1.88;;;;;;;18.38;54.68;99068.44;2617086;54;20034;-66
2022/05/12 06:00:09;;;;;;;2.95;1.77;;;;;;;18.39;54.86;99072.75;2618276;54;20580;-65
2022/05/12 06:02:39;;;;;;;5.95;2.25;;;;;;;18.42;54.65;99079.50;2618217;54;20039;-65
2022/05/12 06:05:10;;;;;;;5.43;1.83;;;;;;;18.42;54.18;99077.63;2617889;54;20570;-68
2022/05/12 06:07:42;;;;;;;5.45;1.85;;;;;;;18.35;53.95;99079.63;2618091;54;20022;-66
2022/05/12 06:10:15;;;;;;;7.38;2.25;;;;;;;18.30;54.24;99085.69;2617851;54;20041;-67
2022/05/12 06:12:45;;;;;;;6.38;1.98;;;;;;;18.26;54.04;99094.41;2618328;39;20422;-67
2022/05/12 06:15:14;;;;;;;4.00;1.80;;;;;;;18.25;54.05;99093.59;2617396;54;20049;-67
2022/05/12 06:17:44;;;;;;;2.70;1.92;;;;;;;18.21;53.87;99097.81;2617804;54;20038;-66
2022/05/12 06:20:25;;;;;;;2.92;1.85;;;;;;;18.11;54.04;99102.09;2618254;39;20430;-68
2022/05/12 06:22:55;;;;;;;7.15;2.45;;;;;;;18.06;54.61;99116.19;2617919;54;20038;-65
2022/05/12 06:25:28;;;;;;;3.88;2.00;;;;;;;18.05;54.67;99118.06;2618109;54;20577;-67
2022/05/12 06:27:57;;;;;;;4.70;2.13;;;;;;;18.00;54.61;99109.09;2617285;54;20069;-68
2022/05/12 06:30:29;;;;;;;6.00;2.20;;;;;;;18.16;54.70;99113.72;2617445;47;20027;-66
2022/05/12 06:33:00;;;;;;;4.25;1.98;;;;;;;18.23;54.57;99122.44;2618494;39;20407;-66
2022/05/12 06:35:30;;;;;;;5.57;1.88;;;;;;;18.33;54.27;99119.19;2617124;46;20093;-68
2022/05/12 06:37:59;;;;;;;5.80;2.38;;;;;;;18.38;53.74;99121.97;2617785;54;20045;-67
2022/05/12 06:40:32;;;;;;;4.00;2.00;;;;;;;18.43;54.01;99123.94;2617913;54;20027;-66
2022/05/12 06:43:05;;;;;;;3.92;1.90;;;;;;;18.41;53.41;99126.88;2617364;47;20022;-67
2022/05/12 06:45:35;;;;;;;7.93;2.45;;;;;;;18.36;54.25;99123.25;2617543;54;20516;-65
2022/05/12 06:48:05;;;;;;;4.78;2.10;;;;;;;18.45;54.00;99129.84;2617702;54;20041;-65
2022/05/12 06:50:35;;;;;;;4.55;2.08;;;;;;;18.65;53.56;99127.59;2617791;54;20038;-66
2022/05/12 06:53:05;;;;;;;4.53;2.30;;;;;;;18.85;53.10;99129.09;2617176;47;20042;-66
2022/05/12 06:55:37;;;;;;;5.38;2.25;;;;;;;18.74;52.80;99123.56;2618105;54;20558;-66
2022/05/12 06:58:07;;;;;;;2.47;1.70;;;;;;;18.82;53.05;99133.09;2617183;54;20034;-66
2022/05/12 07:00:37;;;;;;;3.95;1.70;;;;;;;18.94;52.80;99131.19;2618044;31;20527;-66
2022/05/12 07:03:07;;;;;;;4.13;1.52;;;;;;;19.04;52.34;99133.22;2617994;54;20038;-66
2022/05/12 07:05:38;;;;;;;9.70;2.20;;;;;;;19.18;52.16;99131.06;2617808;54;20037;-65
2022/05/12 07:08:10;;;;;;;3.97;2.05;;;;;;;19.19;51.57;99127.34;2617199;54;20039;-65
2022/05/12 07:10:42;;;;;;;9.73;1.98;;;;;;;19.37;51.89;99124.44;2618056;54;20030;-65
2022/05/12 07:13:12;;;;;;;4.40;1.42;;;;;;;19.41;51.56;99125.56;2618004;54;20030;-65
2022/05/12 07:15:42;;;;;;;7.35;1.88;;;;;;;19.53;51.34;99125.50;2617910;54;20037;-66
2022/05/12 07:18:12;;;;;;;4.45;1.65;;;;;;;19.69;50.89;99126.59;2617836;54;20027;-66
2022/05/12 07:29:06;;;;;;;3.45;1.92;;;;;;;20.25;49.72;99125.56;2623261;54;20035;-66
2022/05/12 07:31:35;;;;;;;6.30;2.25;;;;;;;20.51;49.14;99139.34;2621512;54;20038;-66
2022/05/12 07:34:05;;;;;;;3.45;1.90;;;;;;;20.58;49.17;99134.63;2622193;47;20026;-67
2022/05/12 07:36:38;;;;;;;3.83;1.63;;;;;;;20.68;49.14;99137.41;2622695;54;20057;-67
2022/05/12 07:39:08;;;;;;;3.38;1.88;;;;;;;20.80;48.66;99136.47;2622250;54;20035;-68
2022/05/12 07:41:41;;;;;;;3.88;2.35;;;;;;;21.01;48.33;99135.63;2622789;54;20039;-67
2022/05/12 07:44:13;;;;;;;5.10;1.80;;;;;;;21.00;47.56;99142.09;2622486;39;20416;-67
2022/05/12 07:46:43;;;;;;;3.45;1.80;;;;;;;21.12;47.47;99141.94;2622761;54;20082;-66
2022/05/12 07:49:13;;;;;;;6.38;1.85;;;;;;;21.13;47.15;99149.75;2623430;54;20030;-66
2022/05/12 07:51:49;;;;;;;5.53;1.90;;;;;;;21.19;46.73;99145.25;2621403;47;20562;-66
2022/05/12 07:54:19;;;;;;;3.40;2.08;;;;;;;21.22;46.35;99148.22;2622816;54;20031;-66
2022/05/12 07:56:51;;;;;;;5.05;2.08;;;;;;;21.35;46.31;99143.53;2621932;54;20027;-67
2022/05/12 07:59:21;;;;;;;4.57;2.00;;;;;;;21.47;45.83;99145.00;2620077;54;20030;-66
2022/05/12 08:01:51;;;;;;;5.43;1.65;;;;;;;21.59;45.99;99154.78;2620454;39;20446;-66
2022/05/12 08:04:21;;;;;;;5.80;1.70;;;;;;;21.37;45.56;99155.66;2619668;54;20085;-67
2022/05/12 08:06:50;;;;;;;3.95;2.03;;;;;;;21.17;46.15;99167.00;2618810;54;20037;-66
2022/05/12 08:09:20;;;;;;;4.68;1.70;;;;;;;21.24;45.88;99156.84;2619373;54;20034;-66
2022/05/12 08:11:53;;;;;;;5.47;1.60;;;;;;;21.48;45.52;99164.66;2619797;39;20478;-68
2022/05/12 08:14:22;;;;;;;6.13;1.60;;;;;;;21.57;45.15;99170.38;2618468;54;20038;-67
2022/05/12 08:16:52;;;;;;;4.05;1.80;;;;;;;21.68;44.94;99159.44;2618876;39;20446;-66
2022/05/12 08:19:22;;;;;;;5.20;1.60;;;;;;;21.68;44.29;99164.84;2620741;54;20035;-65
2022/05/12 08:21:52;;;;;;;6.50;1.80;;;;;;;21.83;44.68;99166.00;2621989;54;20030;-67
2022/05/12 08:24:21;;;;;;;6.85;1.58;;;;;;;22.00;44.07;99172.06;2624438;54;20558;-66
2022/05/12 08:26:54;;;;;;;5.97;1.88;;;;;;;21.98;43.70;99163.44;2623730;47;20030;-67
2022/05/12 08:29:23;;;;;;;3.92;1.58;;;;;;;21.92;44.19;99167.16;2624279;54;20042;-67
2022/05/12 08:31:53;;;;;;;3.67;1.80;;;;;;;21.97;43.73;99165.31;2622266;54;20105;-65
2022/05/12 08:34:22;;;;;;;4.40;1.90;;;;;;;21.99;43.58;99170.44;2619620;46;20064;-66
2022/05/12 08:36:54;;;;;;;4.35;1.38;;;;;;;21.91;43.13;99171.72;2619161;54;20030;-66
2022/05/12 08:39:23;;;;;;;4.95;1.55;;;;;;;21.99;43.00;99175.81;2619331;54;20041;-67
2022/05/12 08:42:03;;;;;;;5.63;2.08;;;;;;;21.96;43.06;99177.16;2619443;54;20042;-65
2022/05/12 08:44:38;;;;;;;4.82;2.00;;;;;;;22.01;42.18;99179.09;2619421;54;20061;-66
2022/05/12 08:47:14;;;;;;;2.47;1.73;;;;;;;21.90;42.89;99180.06;2618588;47;20049;-66
2022/05/12 08:49:46;;;;;;;5.25;2.08;;;;;;;21.86;42.31;99174.38;2619572;54;20035;-67
2022/05/12 08:52:19;;;;;;;3.37;1.67;;;;;;;21.82;42.53;99181.34;2620071;39;20129;-67
2022/05/12 08:54:53;;;;;;;4.30;1.90;;;;;;;21.91;42.41;99181.69;2619508;54;20034;-67
2022/05/12 08:57:34;;;;;;;3.95;1.75;;;;;;;21.97;42.24;99188.75;2618615;47;20027;-67
2022/05/12 09:00:08;;;;;;;3.38;1.75;;;;;;;21.95;42.35;99191.66;2619178;54;20038;-66
2022/05/12 09:02:50;;;;;;;6.55;2.60;;;;;;;21.77;42.87;99190.19;2618679;47;20054;-66
2022/05/12 09:05:24;;;;;;;4.60;1.70;;;;;;;21.78;43.16;99191.00;2618846;54;20037;-67
2022/05/12 09:08:01;;;;;;;3.45;1.88;;;;;;;21.84;42.52;99189.16;2618878;54;20042;-68
2022/05/12 09:10:46;;;;;;;5.50;1.63;;;;;;;21.81;42.38;99184.31;2619085;54;20038;-66
2022/05/12 09:13:26;;;;;;;4.55;1.90;;;;;;;21.81;42.63;99189.69;2619108;54;20034;-66
2022/05/12 09:16:07;;;;;;;4.75;1.80;;;;;;;21.78;41.83;99196.38;2619558;39;20324;-66
2022/05/12 09:18:39;;;;;;;4.10;2.10;;;;;;;21.76;42.20;99199.34;2618860;54;20622;-66
2022/05/12 09:21:13;;;;;;;5.95;1.88;;;;;;;21.66;42.15;99185.78;2618906;54;20043;-66
2022/05/12 09:23:43;;;;;;;7.68;2.10;;;;;;;21.50;43.15;99200.97;2618977;54;20045;-67
2022/05/12 09:26:37;;;;;;;4.13;1.75;;;;;;;21.67;43.14;99182.03;2619443;39;20454;-67
2022/05/12 09:29:19;;;;;;;6.03;1.90;;;;;;;21.83;42.73;99187.53;2618633;54;20039;-67
2022/05/12 09:31:52;;;;;;;8.05;1.90;;;;;;;22.10;42.31;99179.41;2619016;54;20042;-67
2022/05/12 09:34:27;;;;;;;3.95;1.65;;;;;;;22.05;42.56;99185.56;2617836;54;20065;-67
2022/05/12 09:36:56;;;;;;;5.97;2.10;;;;;;;21.95;42.72;99182.78;2618298;54;20030;-66
2022/05/12 09:39:40;;;;;;;4.75;1.85;;;;;;;21.90;42.83;99188.13;2618181;54;20046;-66
2022/05/12 09:42:17;;;;;;;7.50;2.10;;;;;;;21.87;43.46;99191.34;2617982;54;20029;-66
2022/05/12 09:45:00;;;;;;;6.32;2.17;;;;;;;21.89;43.08;99181.94;2617433;54;20800;-71
2022/05/12 09:47:32;;;;;;;4.13;1.83;;;;;;;21.82;43.28;99181.34;2617382;47;20023;-68
2022/05/12 09:50:16;;;;;;;4.80;1.63;;;;;;;21.82;42.37;99177.84;2617893;54;20034;-68
2022/05/12 09:52:47;;;;;;;4.57;1.98;;;;;;;21.58;42.46;99170.09;2617921;54;20061;-69
2022/05/12 09:55:21;;;;;;;3.00;1.33;;;;;;;21.66;42.10;99172.34;2618297;54;20030;-68
2022/05/12 09:57:55;;;;;;;8.88;2.00;;;;;;;21.54;42.56;99177.06;2617259;54;20034;-67
2022/05/12 10:00:36;;;;;;;4.47;1.80;;;;;;;21.47;42.95;99177.28;2617665;54;20029;-70
2022/05/12 10:08:46;;;;;;;3.28;1.48;;;;;;;21.74;42.08;99169.16;2618509;39;20442;-68
2022/05/12 10:11:17;;;;;;;5.57;1.60;;;;;;;21.72;42.29;99157.06;2617595;54;20561;-68
2022/05/12 10:13:52;;;;;;;2.78;1.50;;;;;;;21.70;42.42;99162.69;2618078;54;20030;-68
2022/05/12 10:16:29;;;;;;;6.20;1.80;;;;;;;21.79;42.18;99165.72;2618396;54;20038;-67
2022/05/12 10:19:03;;;;;;;3.30;1.63;;;;;;;21.63;42.44;99167.44;2618217;54;20033;-69
2022/05/12 10:21:41;;;;;;;4.38;1.40;;;;;;;21.50;42.64;99163.31;2618279;54;20031;-69
2022/05/12 10:24:21;;;;;;;15.07;2.40;;;;;;;21.64;42.91;99160.22;2619532;54;20558;-68
2022/05/12 10:26:54;;;;;;;5.95;1.35;;;;;;;21.38;42.23;99157.28;2621626;54;20038;-68
2022/05/12 10:29:36;;;;;;;4.13;1.45;;;;;;;21.18;42.11;99157.84;2620613;54;20035;-68
2022/05/12 10:32:17;;;;;;;5.22;1.58;;;;;;;21.19;42.26;99154.13;2621838;54;20038;-69
2022/05/12 10:34:54;;;;;;;6.88;2.30;;;;;;;21.24;42.68;99156.03;2621597;54;20025;-68
2022/05/12 10:37:39;;;;;;;2.45;1.50;;;;;;;21.48;42.94;99146.63;2620722;46;20023;-69
2022/05/12 10:40:23;;;;;;;5.65;1.83;;;;;;;21.33;42.36;99145.69;2622455;54;20567;-69
2022/05/12 10:43:02;;;;;;;4.95;1.77;;;;;;;21.28;42.69;99154.47;2620869;54;20034;-73
2022/05/12 10:45:39;;;;;;;4.90;1.52;;;;;;;21.24;42.56;99151.47;2621830;54;20031;-68
2022/05/12 10:48:47;;;;;;;6.50;1.73;;;;;;;21.22;43.08;99148.22;2619328;54;20558;-71
2022/05/12 10:51:25;;;;;;;4.53;1.70;;;;;;;21.31;42.69;99131.63;2620099;39;20400;-69
2022/05/12 10:54:10;;;;;;;5.80;1.60;;;;;;;21.62;42.75;99144.31;2620039;54;20034;-71
2022/05/12 10:56:48;;;;;;;17.25;2.25;;;;;;;21.98;41.53;99155.38;2619396;54;20037;-70
2022/05/12 10:59:30;;;;;;;4.00;1.33;;;;;;;21.97;41.91;99130.34;2619297;54;20038;-70
2022/05/12 11:02:08;;;;;;;5.22;1.48;;;;;;;22.18;41.11;99136.69;2619143;54;20093;-70
2022/05/12 11:04:44;;;;;;;4.95;1.70;;;;;;;22.58;40.72;99143.38;2621370;54;20545;-68
2022/05/12 11:07:18;;;;;;;5.50;1.77;;;;;;;22.88;40.06;99142.66;2618082;46;20046;-69
2022/05/12 11:10:04;;;;;;;4.75;1.52;;;;;;;23.03;39.36;99133.03;2618078;54;20173;-70
2022/05/12 11:12:40;;;;;;;4.88;1.90;;;;;;;23.14;39.42;99138.16;2618791;54;20034;-69
2022/05/12 11:15:18;;;;;;;4.38;1.55;;;;;;;23.30;39.15;99130.09;2618071;47;20030;-70
2022/05/12 11:17:56;;;;;;;4.10;1.50;;;;;;;23.44;38.46;99131.22;2618284;54;20046;-69
2022/05/12 11:20:32;;;;;;;5.68;1.40;;;;;;;23.27;38.21;99139.56;2618546;54;20041;-70
2022/05/12 11:23:17;;;;;;;3.78;1.30;;;;;;;22.75;39.54;99132.38;2620292;54;20050;-70
2022/05/12 11:26:00;;;;;;;4.90;1.90;;;;;;;22.47;39.93;99141.69;2621785;54;20026;-69
2022/05/12 11:31:24;;;;;;;1.60;1.20;;;;;;;22.21;40.58;99144.25;2621516;54;20041;-70
2022/05/12 11:33:57;;;;;;;3.75;1.55;;;;;;;22.05;41.23;99133.63;2622665;54;20035;-69
2022/05/12 11:36:42;;;;;;;5.75;1.40;;;;;;;22.19;41.36;99134.81;2622377;54;20042;-70
2022/05/12 11:39:29;;;;;;;5.38;1.52;;;;;;;22.42;41.14;99136.28;2622371;54;20042;-69
2022/05/12 11:42:24;;;;;;;4.32;1.65;;;;;;;22.48;41.40;99124.44;2621906;54;20045;-69
2022/05/12 11:45:04;;;;;;;2.78;1.35;;;;;;;22.59;40.64;99125.31;2616825;47;20038;-70
2022/05/12 11:47:59;;;;;;;4.20;1.52;;;;;;;22.92;40.49;99132.19;2617612;54;20037;-70
2022/05/12 11:50:44;;;;;;;4.43;1.25;;;;;;;23.08;39.98;99122.25;2617801;54;20054;-70
2022/05/12 11:53:21;;;;;;;3.92;1.70;;;;;;;23.11;39.93;99114.44;2617731;54;20035;-70
2022/05/12 11:56:01;;;;;;;4.20;1.48;;;;;;;22.88;40.04;99112.19;2617491;54;20038;-69
2022/05/12 11:58:34;;;;;;;5.05;1.48;;;;;;;22.72;39.96;99114.84;2617513;54;20034;-70
2022/05/12 12:01:06;;;;;;;;;;;;;;;22.57;39.74;99113.97;2617690;54;20030;-69
2022/05/12 12:03:52;;;;;;;3.83;1.60;;;;;;;22.65;40.22;99108.06;2618256;39;20366;-67
2022/05/12 12:06:40;;;;;;;2.45;1.38;;;;;;;22.91;40.30;99115.22;2617623;54;20065;-69
2022/05/12 12:09:54;;;;;;;3.85;1.40;;;;;;;23.11;39.52;99109.06;2617702;54;20035;-68
2022/05/12 12:12:39;;;;;;;;;;;;;;;23.24;39.43;99105.03;2617756;54;20049;-68
2022/05/12 12:15:13;;;;;;;4.30;1.58;;;;;;;23.42;38.99;99107.19;2617232;54;19961;-67
2022/05/12 12:17:44;;;;;;;4.75;1.70;;;;;;;23.54;39.72;99111.50;2616939;47;20033;-68
2022/05/12 12:20:50;;;;;;;4.55;1.45;;;;;;;23.70;39.07;99111.25;2616996;47;20030;-68
2022/05/12 12:23:27;;;;;;;3.67;1.20;;;;;;;23.59;38.66;99111.50;2617792;54;20034;-69
2022/05/12 12:26:01;;;;;;;4.65;1.55;;;;;;;23.57;38.86;99111.78;2617558;54;20061;-71